sensor_id;sensor_type;location;lat;lon;timestamp;temperature;humidity
30999;DHT22;20549;50.042;8.968;2022-08-19T00:00:15;23.60;67.90
30999;DHT22;20549;50.042;8.968;2022-08-19T00:02:41;23.60;67.80
30999;DHT22;20549;50.042;8.968;2022-08-19T00:05:08;23.60;67.90
30999;DHT22;20549;50.042;8.968;2022-08-19T00:07:34;23.60;67.90
30999;DHT22;20549;50.042;8.968;2022-08-19T00:10:01;23.60;67.90
30999;DHT22;20549;50.042;8.968;2022-08-19T00:12:27;23.70;67.90
30999;DHT22;20549;50.042;8.968;2022-08-19T00:14:54;23.70;68.20
30999;DHT22;20549;50.042;8.968;2022-08-19T00:17:21;23.70;67.80
30999;DHT22;20549;50.042;8.968;2022-08-19T00:19:47;23.70;67.80
30999;DHT22;20549;50.042;8.968;2022-08-19T00:22:14;23.70;67.90
30999;DHT22;20549;50.042;8.968;2022-08-19T00:24:40;23.70;68.50
30999;DHT22;20549;50.042;8.968;2022-08-19T00:27:07;23.70;67.90
30999;DHT22;20549;50.042;8.968;2022-08-19T00:29:34;23.70;67.90
30999;DHT22;20549;50.042;8.968;2022-08-19T00:32:00;23.70;67.90
30999;DHT22;20549;50.042;8.968;2022-08-19T00:34:27;23.70;67.90
30999;DHT22;20549;50.042;8.968;2022-08-19T00:36:54;23.70;67.90
30999;DHT22;20549;50.042;8.968;2022-08-19T00:39:20;23.70;67.90
30999;DHT22;20549;50.042;8.968;2022-08-19T00:41:47;23.70;67.80
30999;DHT22;20549;50.042;8.968;2022-08-19T00:44:14;23.70;67.80
30999;DHT22;20549;50.042;8.968;2022-08-19T00:46:41;23.70;67.80
30999;DHT22;20549;50.042;8.968;2022-08-19T00:49:11;23.70;67.80
30999;DHT22;20549;50.042;8.968;2022-08-19T00:51:36;23.70;67.70
30999;DHT22;20549;50.042;8.968;2022-08-19T00:54:02;23.60;67.50
30999;DHT22;20549;50.042;8.968;2022-08-19T00:56:29;23.70;67.50
30999;DHT22;20549;50.042;8.968;2022-08-19T00:58:56;23.60;67.50
30999;DHT22;20549;50.042;8.968;2022-08-19T01:01:22;23.60;67.50
30999;DHT22;20549;50.042;8.968;2022-08-19T01:03:49;23.60;67.40
30999;DHT22;20549;50.042;8.968;2022-08-19T01:06:15;23.60;67.40
30999;DHT22;20549;50.042;8.968;2022-08-19T01:08:42;23.60;67.40
30999;DHT22;20549;50.042;8.968;2022-08-19T01:11:08;23.60;67.40
30999;DHT22;20549;50.042;8.968;2022-08-19T01:13:35;23.50;67.30
30999;DHT22;20549;50.042;8.968;2022-08-19T01:16:03;23.50;67.40
30999;DHT22;20549;50.042;8.968;2022-08-19T01:18:28;23.50;67.40
30999;DHT22;20549;50.042;8.968;2022-08-19T01:20:55;23.50;67.50
30999;DHT22;20549;50.042;8.968;2022-08-19T01:23:21;23.50;67.50
30999;DHT22;20549;50.042;8.968;2022-08-19T01:25:49;23.50;67.50
30999;DHT22;20549;50.042;8.968;2022-08-19T01:28:21;23.50;67.60
30999;DHT22;20549;50.042;8.968;2022-08-19T01:30:44;23.50;67.70
30999;DHT22;20549;50.042;8.968;2022-08-19T01:33:11;23.50;67.70
30999;DHT22;20549;50.042;8.968;2022-08-19T01:35:37;23.50;67.70
30999;DHT22;20549;50.042;8.968;2022-08-19T01:38:05;23.50;67.80
30999;DHT22;20549;50.042;8.968;2022-08-19T01:40:31;23.50;67.80
30999;DHT22;20549;50.042;8.968;2022-08-19T01:42:57;23.40;67.80
30999;DHT22;20549;50.042;8.968;2022-08-19T01:45:24;23.50;67.80
30999;DHT22;20549;50.042;8.968;2022-08-19T01:47:50;23.50;67.90
30999;DHT22;20549;50.042;8.968;2022-08-19T01:50:17;23.40;67.80
30999;DHT22;20549;50.042;8.968;2022-08-19T01:52:44;23.40;67.90
30999;DHT22;20549;50.042;8.968;2022-08-19T01:55:12;23.40;68.00
30999;DHT22;20549;50.042;8.968;2022-08-19T01:57:37;23.40;68.00
30999;DHT22;20549;50.042;8.968;2022-08-19T02:00:05;23.40;68.20
30999;DHT22;20549;50.042;8.968;2022-08-19T02:02:30;23.40;68.20
30999;DHT22;20549;50.042;8.968;2022-08-19T02:04:56;23.30;68.30
30999;DHT22;20549;50.042;8.968;2022-08-19T02:07:23;23.40;68.30
30999;DHT22;20549;50.042;8.968;2022-08-19T02:09:49;23.30;68.30
30999;DHT22;20549;50.042;8.968;2022-08-19T02:12:16;23.40;68.50
30999;DHT22;20549;50.042;8.968;2022-08-19T02:14:43;23.40;68.50
30999;DHT22;20549;50.042;8.968;2022-08-19T02:17:09;23.40;68.60
30999;DHT22;20549;50.042;8.968;2022-08-19T02:19:36;23.40;68.70
30999;DHT22;20549;50.042;8.968;2022-08-19T02:22:02;23.40;68.80
30999;DHT22;20549;50.042;8.968;2022-08-19T02:24:29;23.40;68.90
30999;DHT22;20549;50.042;8.968;2022-08-19T02:26:56;23.40;68.90
30999;DHT22;20549;50.042;8.968;2022-08-19T02:29:22;23.40;68.90
30999;DHT22;20549;50.042;8.968;2022-08-19T02:31:49;23.50;68.90
30999;DHT22;20549;50.042;8.968;2022-08-19T02:34:16;23.50;68.90
30999;DHT22;20549;50.042;8.968;2022-08-19T02:36:42;23.50;68.80
30999;DHT22;20549;50.042;8.968;2022-08-19T02:39:09;23.50;68.80
30999;DHT22;20549;50.042;8.968;2022-08-19T02:41:35;23.50;68.80
30999;DHT22;20549;50.042;8.968;2022-08-19T02:44:02;23.50;68.80
30999;DHT22;20549;50.042;8.968;2022-08-19T02:46:29;23.50;68.80
30999;DHT22;20549;50.042;8.968;2022-08-19T02:48:56;23.50;68.80
30999;DHT22;20549;50.042;8.968;2022-08-19T02:51:25;23.40;68.80
30999;DHT22;20549;50.042;8.968;2022-08-19T02:53:54;23.40;68.90
30999;DHT22;20549;50.042;8.968;2022-08-19T02:56:18;23.40;69.00
30999;DHT22;20549;50.042;8.968;2022-08-19T02:58:44;23.40;69.10
30999;DHT22;20549;50.042;8.968;2022-08-19T03:01:10;23.40;69.10
30999;DHT22;20549;50.042;8.968;2022-08-19T03:03:37;23.40;69.20
30999;DHT22;20549;50.042;8.968;2022-08-19T03:06:12;23.30;69.20
30999;DHT22;20549;50.042;8.968;2022-08-19T03:08:36;23.30;69.30
30999;DHT22;20549;50.042;8.968;2022-08-19T03:11:02;23.30;69.40
30999;DHT22;20549;50.042;8.968;2022-08-19T03:13:29;23.30;69.40
30999;DHT22;20549;50.042;8.968;2022-08-19T03:15:56;23.30;69.50
30999;DHT22;20549;50.042;8.968;2022-08-19T03:18:22;23.30;69.60
30999;DHT22;20549;50.042;8.968;2022-08-19T03:20:49;23.30;69.80
30999;DHT22;20549;50.042;8.968;2022-08-19T03:23:16;23.20;69.70
30999;DHT22;20549;50.042;8.968;2022-08-19T03:25:43;23.20;69.80
30999;DHT22;20549;50.042;8.968;2022-08-19T03:28:12;23.20;69.90
30999;DHT22;20549;50.042;8.968;2022-08-19T03:30:38;23.20;70.00
30999;DHT22;20549;50.042;8.968;2022-08-19T03:33:05;23.20;70.00
30999;DHT22;20549;50.042;8.968;2022-08-19T03:35:31;23.10;70.10
30999;DHT22;20549;50.042;8.968;2022-08-19T03:38:00;23.10;70.20
30999;DHT22;20549;50.042;8.968;2022-08-19T03:40:27;23.10;70.20
30999;DHT22;20549;50.042;8.968;2022-08-19T03:42:53;23.10;70.30
30999;DHT22;20549;50.042;8.968;2022-08-19T03:45:20;23.10;70.50
30999;DHT22;20549;50.042;8.968;2022-08-19T03:47:47;23.10;70.50
30999;DHT22;20549;50.042;8.968;2022-08-19T03:50:13;23.00;70.60
30999;DHT22;20549;50.042;8.968;2022-08-19T03:52:40;22.90;70.80
30999;DHT22;20549;50.042;8.968;2022-08-19T03:55:06;22.90;70.90
30999;DHT22;20549;50.042;8.968;2022-08-19T03:57:33;22.90;71.00
30999;DHT22;20549;50.042;8.968;2022-08-19T04:00:00;22.90;71.30
30999;DHT22;20549;50.042;8.968;2022-08-19T04:02:26;22.90;71.50
30999;DHT22;20549;50.042;8.968;2022-08-19T04:04:53;22.80;71.60
30999;DHT22;20549;50.042;8.968;2022-08-19T04:07:19;22.80;71.70
30999;DHT22;20549;50.042;8.968;2022-08-19T04:09:46;22.80;71.80
30999;DHT22;20549;50.042;8.968;2022-08-19T04:12:13;22.80;71.10
30999;DHT22;20549;50.042;8.968;2022-08-19T04:14:39;22.80;72.10
30999;DHT22;20549;50.042;8.968;2022-08-19T04:17:06;22.80;72.20
30999;DHT22;20549;50.042;8.968;2022-08-19T04:19:33;22.80;72.40
30999;DHT22;20549;50.042;8.968;2022-08-19T04:21:59;22.80;72.50
30999;DHT22;20549;50.042;8.968;2022-08-19T04:24:26;22.80;72.60
30999;DHT22;20549;50.042;8.968;2022-08-19T04:26:52;22.80;72.70
30999;DHT22;20549;50.042;8.968;2022-08-19T04:29:23;22.90;72.80
30999;DHT22;20549;50.042;8.968;2022-08-19T04:31:48;22.90;72.80
30999;DHT22;20549;50.042;8.968;2022-08-19T04:34:16;22.90;72.80
30999;DHT22;20549;50.042;8.968;2022-08-19T04:36:42;22.90;72.80
30999;DHT22;20549;50.042;8.968;2022-08-19T04:39:09;23.00;72.80
30999;DHT22;20549;50.042;8.968;2022-08-19T04:41:35;23.00;72.80
30999;DHT22;20549;50.042;8.968;2022-08-19T04:44:19;23.00;72.70
30999;DHT22;20549;50.042;8.968;2022-08-19T04:46:47;23.00;72.70
30999;DHT22;20549;50.042;8.968;2022-08-19T04:49:13;23.00;72.80
30999;DHT22;20549;50.042;8.968;2022-08-19T04:51:40;23.00;72.90
30999;DHT22;20549;50.042;8.968;2022-08-19T04:54:06;23.00;73.00
30999;DHT22;20549;50.042;8.968;2022-08-19T04:56:32;23.00;73.20
30999;DHT22;20549;50.042;8.968;2022-08-19T04:58:59;23.00;73.50
30999;DHT22;20549;50.042;8.968;2022-08-19T05:01:27;23.00;73.40
30999;DHT22;20549;50.042;8.968;2022-08-19T05:03:52;23.00;73.50
30999;DHT22;20549;50.042;8.968;2022-08-19T05:06:20;23.00;73.50
30999;DHT22;20549;50.042;8.968;2022-08-19T05:08:45;23.10;73.60
30999;DHT22;20549;50.042;8.968;2022-08-19T05:11:15;23.10;73.70
30999;DHT22;20549;50.042;8.968;2022-08-19T05:13:42;23.10;73.80
30999;DHT22;20549;50.042;8.968;2022-08-19T05:16:08;23.10;73.90
30999;DHT22;20549;50.042;8.968;2022-08-19T05:18:34;23.10;73.90
30999;DHT22;20549;50.042;8.968;2022-08-19T05:21:19;23.10;74.00
30999;DHT22;20549;50.042;8.968;2022-08-19T05:24:04;23.10;74.70
30999;DHT22;20549;50.042;8.968;2022-08-19T05:26:30;23.10;73.90
30999;DHT22;20549;50.042;8.968;2022-08-19T05:28:57;23.10;74.10
30999;DHT22;20549;50.042;8.968;2022-08-19T05:31:23;23.20;74.10
30999;DHT22;20549;50.042;8.968;2022-08-19T05:33:50;23.20;73.30
30999;DHT22;20549;50.042;8.968;2022-08-19T05:36:16;23.20;74.20
30999;DHT22;20549;50.042;8.968;2022-08-19T05:38:43;23.20;74.90
30999;DHT22;20549;50.042;8.968;2022-08-19T05:41:10;23.30;74.70
30999;DHT22;20549;50.042;8.968;2022-08-19T05:43:36;23.30;74.70
30999;DHT22;20549;50.042;8.968;2022-08-19T05:46:03;23.40;74.80
30999;DHT22;20549;50.042;8.968;2022-08-19T05:48:29;23.50;74.90
30999;DHT22;20549;50.042;8.968;2022-08-19T05:50:56;23.50;74.70
30999;DHT22;20549;50.042;8.968;2022-08-19T05:53:22;23.60;74.60
30999;DHT22;20549;50.042;8.968;2022-08-19T05:55:49;23.70;74.60
30999;DHT22;20549;50.042;8.968;2022-08-19T05:58:16;23.80;74.30
30999;DHT22;20549;50.042;8.968;2022-08-19T06:00:43;23.80;74.00
30999;DHT22;20549;50.042;8.968;2022-08-19T06:03:09;23.90;73.80
30999;DHT22;20549;50.042;8.968;2022-08-19T06:05:35;23.90;73.50
30999;DHT22;20549;50.042;8.968;2022-08-19T06:08:02;24.00;73.40
30999;DHT22;20549;50.042;8.968;2022-08-19T06:10:29;24.00;73.20
30999;DHT22;20549;50.042;8.968;2022-08-19T06:12:55;24.10;73.10
30999;DHT22;20549;50.042;8.968;2022-08-19T06:15:22;24.10;73.10
30999;DHT22;20549;50.042;8.968;2022-08-19T06:17:48;24.20;73.10
30999;DHT22;20549;50.042;8.968;2022-08-19T06:20:15;24.20;72.90
30999;DHT22;20549;50.042;8.968;2022-08-19T06:22:42;24.30;72.90
30999;DHT22;20549;50.042;8.968;2022-08-19T06:25:08;24.30;72.80
30999;DHT22;20549;50.042;8.968;2022-08-19T06:27:38;24.40;72.80
30999;DHT22;20549;50.042;8.968;2022-08-19T06:30:04;24.50;72.60
30999;DHT22;20549;50.042;8.968;2022-08-19T06:32:31;24.50;72.40
30999;DHT22;20549;50.042;8.968;2022-08-19T06:34:57;24.60;72.30
30999;DHT22;20549;50.042;8.968;2022-08-19T06:37:24;24.60;72.10
30999;DHT22;20549;50.042;8.968;2022-08-19T06:39:51;24.70;72.20
30999;DHT22;20549;50.042;8.968;2022-08-19T06:42:17;24.70;71.80
30999;DHT22;20549;50.042;8.968;2022-08-19T06:44:45;24.80;71.70
30999;DHT22;20549;50.042;8.968;2022-08-19T06:47:12;24.90;71.70
30999;DHT22;20549;50.042;8.968;2022-08-19T06:49:37;24.90;71.50
30999;DHT22;20549;50.042;8.968;2022-08-19T06:52:04;24.90;71.20
30999;DHT22;20549;50.042;8.968;2022-08-19T06:54:30;25.00;71.10
30999;DHT22;20549;50.042;8.968;2022-08-19T06:56:57;25.00;71.00
30999;DHT22;20549;50.042;8.968;2022-08-19T06:59:24;25.10;70.90
30999;DHT22;20549;50.042;8.968;2022-08-19T07:01:51;25.10;70.60
30999;DHT22;20549;50.042;8.968;2022-08-19T07:04:18;25.20;70.50
30999;DHT22;20549;50.042;8.968;2022-08-19T07:06:43;25.20;70.30
30999;DHT22;20549;50.042;8.968;2022-08-19T07:09:12;25.20;70.20
30999;DHT22;20549;50.042;8.968;2022-08-19T07:11:36;25.20;70.20
30999;DHT22;20549;50.042;8.968;2022-08-19T07:14:03;25.20;70.10
30999;DHT22;20549;50.042;8.968;2022-08-19T07:16:29;25.20;70.00
30999;DHT22;20549;50.042;8.968;2022-08-19T07:18:56;25.30;70.10
30999;DHT22;20549;50.042;8.968;2022-08-19T07:21:24;25.30;70.00
30999;DHT22;20549;50.042;8.968;2022-08-19T07:23:49;25.40;70.00
30999;DHT22;20549;50.042;8.968;2022-08-19T07:26:19;25.40;69.70
30999;DHT22;20549;50.042;8.968;2022-08-19T07:28:45;25.50;69.80
30999;DHT22;20549;50.042;8.968;2022-08-19T07:31:16;25.60;70.00
30999;DHT22;20549;50.042;8.968;2022-08-19T07:33:41;25.70;70.00
30999;DHT22;20549;50.042;8.968;2022-08-19T07:36:08;25.80;70.20
30999;DHT22;20549;50.042;8.968;2022-08-19T07:38:34;25.90;70.00
30999;DHT22;20549;50.042;8.968;2022-08-19T07:41:01;26.00;69.80
30999;DHT22;20549;50.042;8.968;2022-08-19T07:43:27;26.20;69.60
30999;DHT22;20549;50.042;8.968;2022-08-19T07:45:54;26.30;69.20
30999;DHT22;20549;50.042;8.968;2022-08-19T07:48:20;26.40;68.80
30999;DHT22;20549;50.042;8.968;2022-08-19T07:50:47;26.60;68.40
30999;DHT22;20549;50.042;8.968;2022-08-19T07:53:14;26.70;68.00
30999;DHT22;20549;50.042;8.968;2022-08-19T07:55:40;26.90;67.90
30999;DHT22;20549;50.042;8.968;2022-08-19T07:58:07;27.00;67.50
30999;DHT22;20549;50.042;8.968;2022-08-19T08:00:33;27.10;67.10
30999;DHT22;20549;50.042;8.968;2022-08-19T08:03:00;27.30;66.90
30999;DHT22;20549;50.042;8.968;2022-08-19T08:05:26;27.40;66.40
30999;DHT22;20549;50.042;8.968;2022-08-19T08:08:11;27.60;66.10
30999;DHT22;20549;50.042;8.968;2022-08-19T08:10:56;27.70;65.50
30999;DHT22;20549;50.042;8.968;2022-08-19T08:13:23;27.80;64.80
30999;DHT22;20549;50.042;8.968;2022-08-19T08:15:49;27.90;64.20
30999;DHT22;20549;50.042;8.968;2022-08-19T08:18:16;27.90;64.60
30999;DHT22;20549;50.042;8.968;2022-08-19T08:20:42;28.00;63.20
30999;DHT22;20549;50.042;8.968;2022-08-19T08:23:09;28.00;62.80
30999;DHT22;20549;50.042;8.968;2022-08-19T08:25:55;28.00;62.60
30999;DHT22;20549;50.042;8.968;2022-08-19T08:28:20;28.00;62.00
30999;DHT22;20549;50.042;8.968;2022-08-19T08:30:47;28.00;61.80
30999;DHT22;20549;50.042;8.968;2022-08-19T08:33:16;28.00;62.00
30999;DHT22;20549;50.042;8.968;2022-08-19T08:35:40;28.00;62.10
30999;DHT22;20549;50.042;8.968;2022-08-19T08:38:07;28.00;61.90
30999;DHT22;20549;50.042;8.968;2022-08-19T08:43:27;28.10;62.10
30999;DHT22;20549;50.042;8.968;2022-08-19T08:48:39;28.40;61.60
30999;DHT22;20549;50.042;8.968;2022-08-19T08:51:07;28.50;61.20
30999;DHT22;20549;50.042;8.968;2022-08-19T08:53:31;28.80;61.60
30999;DHT22;20549;50.042;8.968;2022-08-19T08:55:58;29.10;62.20
30999;DHT22;20549;50.042;8.968;2022-08-19T08:58:26;29.50;62.50
30999;DHT22;20549;50.042;8.968;2022-08-19T09:00:51;30.00;61.10
30999;DHT22;20549;50.042;8.968;2022-08-19T09:03:24;30.50;60.20
30999;DHT22;20549;50.042;8.968;2022-08-19T09:08:47;31.50;58.90
30999;DHT22;20549;50.042;8.968;2022-08-19T09:10:51;32.20;59.00
30999;DHT22;20549;50.042;8.968;2022-08-19T09:16:08;33.70;57.50
30999;DHT22;20549;50.042;8.968;2022-08-19T09:18:40;34.60;56.40
30999;DHT22;20549;50.042;8.968;2022-08-19T09:21:06;35.30;55.20
30999;DHT22;20549;50.042;8.968;2022-08-19T09:23:32;36.00;53.60
30999;DHT22;20549;50.042;8.968;2022-08-19T09:25:59;36.60;52.50
30999;DHT22;20549;50.042;8.968;2022-08-19T09:28:25;37.20;51.30
30999;DHT22;20549;50.042;8.968;2022-08-19T09:30:52;37.70;50.20
30999;DHT22;20549;50.042;8.968;2022-08-19T09:33:19;38.20;49.60
30999;DHT22;20549;50.042;8.968;2022-08-19T09:35:45;38.60;48.90
30999;DHT22;20549;50.042;8.968;2022-08-19T09:38:12;39.10;48.30
30999;DHT22;20549;50.042;8.968;2022-08-19T09:40:38;39.40;47.00
30999;DHT22;20549;50.042;8.968;2022-08-19T09:43:05;39.80;46.60
30999;DHT22;20549;50.042;8.968;2022-08-19T09:45:31;40.20;46.00
30999;DHT22;20549;50.042;8.968;2022-08-19T09:47:58;40.40;45.00
30999;DHT22;20549;50.042;8.968;2022-08-19T09:50:25;40.50;44.10
30999;DHT22;20549;50.042;8.968;2022-08-19T09:52:51;40.60;42.80
30999;DHT22;20549;50.042;8.968;2022-08-19T09:55:18;40.40;42.10
30999;DHT22;20549;50.042;8.968;2022-08-19T09:57:44;40.10;41.60
30999;DHT22;20549;50.042;8.968;2022-08-19T10:00:11;39.70;41.30
30999;DHT22;20549;50.042;8.968;2022-08-19T10:02:38;39.40;41.60
30999;DHT22;20549;50.042;8.968;2022-08-19T10:05:04;38.90;41.30
30999;DHT22;20549;50.042;8.968;2022-08-19T10:07:49;38.40;41.10
30999;DHT22;20549;50.042;8.968;2022-08-19T10:10:16;37.90;41.80
30999;DHT22;20549;50.042;8.968;2022-08-19T10:12:42;37.50;42.50
30999;DHT22;20549;50.042;8.968;2022-08-19T10:15:09;37.20;42.70
30999;DHT22;20549;50.042;8.968;2022-08-19T10:17:35;36.90;43.00
30999;DHT22;20549;50.042;8.968;2022-08-19T10:20:02;36.70;43.10
30999;DHT22;20549;50.042;8.968;2022-08-19T10:22:29;36.50;43.10
30999;DHT22;20549;50.042;8.968;2022-08-19T10:24:55;36.30;43.20
30999;DHT22;20549;50.042;8.968;2022-08-19T10:27:22;36.20;43.30
30999;DHT22;20549;50.042;8.968;2022-08-19T10:29:49;36.00;43.30
30999;DHT22;20549;50.042;8.968;2022-08-19T10:32:15;36.00;43.40
30999;DHT22;20549;50.042;8.968;2022-08-19T10:34:42;35.90;43.60
30999;DHT22;20549;50.042;8.968;2022-08-19T10:37:08;35.90;43.40
30999;DHT22;20549;50.042;8.968;2022-08-19T10:39:35;35.90;43.20
30999;DHT22;20549;50.042;8.968;2022-08-19T10:42:07;35.80;43.10
30999;DHT22;20549;50.042;8.968;2022-08-19T10:44:34;35.70;42.90
30999;DHT22;20549;50.042;8.968;2022-08-19T10:47:01;35.50;43.10
30999;DHT22;20549;50.042;8.968;2022-08-19T10:49:27;35.40;43.20
30999;DHT22;20549;50.042;8.968;2022-08-19T10:51:54;35.30;43.40
30999;DHT22;20549;50.042;8.968;2022-08-19T10:54:38;35.20;43.30
30999;DHT22;20549;50.042;8.968;2022-08-19T10:57:23;35.10;43.60
30999;DHT22;20549;50.042;8.968;2022-08-19T10:59:50;35.00;43.60
30999;DHT22;20549;50.042;8.968;2022-08-19T11:02:16;35.00;43.60
30999;DHT22;20549;50.042;8.968;2022-08-19T11:04:43;35.00;43.40
30999;DHT22;20549;50.042;8.968;2022-08-19T11:07:09;34.90;42.80
30999;DHT22;20549;50.042;8.968;2022-08-19T11:09:38;34.80;42.80
30999;DHT22;20549;50.042;8.968;2022-08-19T11:12:03;34.70;42.90
30999;DHT22;20549;50.042;8.968;2022-08-19T11:14:29;34.70;42.80
30999;DHT22;20549;50.042;8.968;2022-08-19T11:16:56;34.60;42.90
30999;DHT22;20549;50.042;8.968;2022-08-19T11:19:22;34.50;43.10
30999;DHT22;20549;50.042;8.968;2022-08-19T11:21:49;34.50;43.00
30999;DHT22;20549;50.042;8.968;2022-08-19T11:24:20;34.40;42.90
30999;DHT22;20549;50.042;8.968;2022-08-19T11:26:45;34.30;42.40
30999;DHT22;20549;50.042;8.968;2022-08-19T11:29:12;34.20;42.60
30999;DHT22;20549;50.042;8.968;2022-08-19T11:31:42;34.10;42.60
30999;DHT22;20549;50.042;8.968;2022-08-19T11:34:11;33.90;43.30
30999;DHT22;20549;50.042;8.968;2022-08-19T11:36:36;33.80;43.00
30999;DHT22;20549;50.042;8.968;2022-08-19T11:39:01;33.70;43.10
30999;DHT22;20549;50.042;8.968;2022-08-19T11:41:27;33.70;43.20
30999;DHT22;20549;50.042;8.968;2022-08-19T11:43:54;33.60;43.50
30999;DHT22;20549;50.042;8.968;2022-08-19T11:46:21;33.60;43.30
30999;DHT22;20549;50.042;8.968;2022-08-19T11:48:47;33.50;43.00
30999;DHT22;20549;50.042;8.968;2022-08-19T11:51:15;33.50;42.90
30999;DHT22;20549;50.042;8.968;2022-08-19T11:53:40;33.40;43.00
30999;DHT22;20549;50.042;8.968;2022-08-19T11:56:07;33.30;43.20
30999;DHT22;20549;50.042;8.968;2022-08-19T11:58:34;33.30;43.30
30999;DHT22;20549;50.042;8.968;2022-08-19T12:01:00;33.20;43.40
30999;DHT22;20549;50.042;8.968;2022-08-19T12:03:27;33.20;43.50
30999;DHT22;20549;50.042;8.968;2022-08-19T12:05:53;33.10;43.40
30999;DHT22;20549;50.042;8.968;2022-08-19T12:08:20;33.10;43.40
30999;DHT22;20549;50.042;8.968;2022-08-19T12:10:46;33.10;43.30
30999;DHT22;20549;50.042;8.968;2022-08-19T12:13:13;33.20;43.20
30999;DHT22;20549;50.042;8.968;2022-08-19T12:15:42;33.20;43.30
30999;DHT22;20549;50.042;8.968;2022-08-19T12:18:09;33.30;43.20
30999;DHT22;20549;50.042;8.968;2022-08-19T12:20:36;33.40;42.60
30999;DHT22;20549;50.042;8.968;2022-08-19T12:23:02;33.40;42.00
30999;DHT22;20549;50.042;8.968;2022-08-19T12:25:28;33.40;41.90
30999;DHT22;20549;50.042;8.968;2022-08-19T12:27:55;33.40;41.90
30999;DHT22;20549;50.042;8.968;2022-08-19T12:30:22;33.30;42.00
30999;DHT22;20549;50.042;8.968;2022-08-19T12:32:48;33.20;41.80
30999;DHT22;20549;50.042;8.968;2022-08-19T12:35:15;33.20;41.70
30999;DHT22;20549;50.042;8.968;2022-08-19T12:37:41;33.10;41.80
30999;DHT22;20549;50.042;8.968;2022-08-19T12:40:08;33.10;42.00
30999;DHT22;20549;50.042;8.968;2022-08-19T12:42:35;33.10;42.10
30999;DHT22;20549;50.042;8.968;2022-08-19T12:45:01;33.00;42.20
30999;DHT22;20549;50.042;8.968;2022-08-19T12:47:28;33.00;41.90
30999;DHT22;20549;50.042;8.968;2022-08-19T12:49:55;33.00;42.00
30999;DHT22;20549;50.042;8.968;2022-08-19T12:52:25;33.00;42.00
30999;DHT22;20549;50.042;8.968;2022-08-19T12:54:51;33.00;42.00
30999;DHT22;20549;50.042;8.968;2022-08-19T12:57:17;33.10;42.00
30999;DHT22;20549;50.042;8.968;2022-08-19T12:59:44;33.20;41.90
30999;DHT22;20549;50.042;8.968;2022-08-19T13:02:10;33.20;41.70
30999;DHT22;20549;50.042;8.968;2022-08-19T13:04:37;33.40;41.60
30999;DHT22;20549;50.042;8.968;2022-08-19T13:07:04;33.50;41.40
30999;DHT22;20549;50.042;8.968;2022-08-19T13:09:30;33.50;41.30
30999;DHT22;20549;50.042;8.968;2022-08-19T13:11:57;33.60;41.30
30999;DHT22;20549;50.042;8.968;2022-08-19T13:14:23;33.70;41.10
30999;DHT22;20549;50.042;8.968;2022-08-19T13:16:50;33.80;41.10
30999;DHT22;20549;50.042;8.968;2022-08-19T13:19:17;33.90;41.00
30999;DHT22;20549;50.042;8.968;2022-08-19T13:21:43;34.00;40.60
30999;DHT22;20549;50.042;8.968;2022-08-19T13:24:10;34.10;40.70
30999;DHT22;20549;50.042;8.968;2022-08-19T13:26:36;34.10;39.90
30999;DHT22;20549;50.042;8.968;2022-08-19T13:29:03;34.10;40.30
30999;DHT22;20549;50.042;8.968;2022-08-19T13:31:48;34.20;41.00
30999;DHT22;20549;50.042;8.968;2022-08-19T13:34:33;34.20;40.00
30999;DHT22;20549;50.042;8.968;2022-08-19T13:36:59;34.10;40.00
30999;DHT22;20549;50.042;8.968;2022-08-19T13:39:26;34.10;40.00
30999;DHT22;20549;50.042;8.968;2022-08-19T13:41:52;34.10;39.80
30999;DHT22;20549;50.042;8.968;2022-08-19T13:44:19;34.10;39.70
30999;DHT22;20549;50.042;8.968;2022-08-19T13:46:46;34.10;39.70
30999;DHT22;20549;50.042;8.968;2022-08-19T13:49:12;34.00;39.70
30999;DHT22;20549;50.042;8.968;2022-08-19T13:51:42;34.00;39.60
30999;DHT22;20549;50.042;8.968;2022-08-19T13:54:08;33.90;39.70
30999;DHT22;20549;50.042;8.968;2022-08-19T13:56:35;33.80;39.60
30999;DHT22;20549;50.042;8.968;2022-08-19T13:59:01;33.70;39.50
30999;DHT22;20549;50.042;8.968;2022-08-19T14:01:27;33.70;39.60
30999;DHT22;20549;50.042;8.968;2022-08-19T14:03:54;33.60;39.60
30999;DHT22;20549;50.042;8.968;2022-08-19T14:06:21;33.50;39.60
30999;DHT22;20549;50.042;8.968;2022-08-19T14:08:47;33.40;39.50
30999;DHT22;20549;50.042;8.968;2022-08-19T14:11:14;33.30;39.70
30999;DHT22;20549;50.042;8.968;2022-08-19T14:13:40;33.20;39.60
30999;DHT22;20549;50.042;8.968;2022-08-19T14:16:08;33.00;39.60
30999;DHT22;20549;50.042;8.968;2022-08-19T14:18:34;33.00;39.60
30999;DHT22;20549;50.042;8.968;2022-08-19T14:21:00;32.80;39.60
30999;DHT22;20549;50.042;8.968;2022-08-19T14:23:27;32.80;39.70
30999;DHT22;20549;50.042;8.968;2022-08-19T14:26:02;32.70;39.90
30999;DHT22;20549;50.042;8.968;2022-08-19T14:28:20;32.60;39.90
30999;DHT22;20549;50.042;8.968;2022-08-19T14:30:46;32.60;40.50
30999;DHT22;20549;50.042;8.968;2022-08-19T14:33:13;32.60;39.90
30999;DHT22;20549;50.042;8.968;2022-08-19T14:35:40;32.50;39.90
30999;DHT22;20549;50.042;8.968;2022-08-19T14:38:06;32.50;40.00
30999;DHT22;20549;50.042;8.968;2022-08-19T14:40:33;32.50;40.00
30999;DHT22;20549;50.042;8.968;2022-08-19T14:43:00;32.50;39.90
30999;DHT22;20549;50.042;8.968;2022-08-19T14:45:27;32.50;40.00
30999;DHT22;20549;50.042;8.968;2022-08-19T14:47:53;32.40;39.90
30999;DHT22;20549;50.042;8.968;2022-08-19T14:50:19;32.50;40.00
30999;DHT22;20549;50.042;8.968;2022-08-19T14:52:46;32.40;39.90
30999;DHT22;20549;50.042;8.968;2022-08-19T14:55:13;32.40;39.90
30999;DHT22;20549;50.042;8.968;2022-08-19T14:57:40;32.40;40.00
30999;DHT22;20549;50.042;8.968;2022-08-19T15:00:06;32.30;40.00
30999;DHT22;20549;50.042;8.968;2022-08-19T15:02:32;32.40;40.20
30999;DHT22;20549;50.042;8.968;2022-08-19T15:04:59;32.40;40.10
30999;DHT22;20549;50.042;8.968;2022-08-19T15:07:26;32.50;40.20
30999;DHT22;20549;50.042;8.968;2022-08-19T15:09:52;32.50;40.20
30999;DHT22;20549;50.042;8.968;2022-08-19T15:12:19;32.60;40.10
30999;DHT22;20549;50.042;8.968;2022-08-19T15:14:45;32.70;40.00
30999;DHT22;20549;50.042;8.968;2022-08-19T15:17:12;32.80;39.90
30999;DHT22;20549;50.042;8.968;2022-08-19T15:19:39;32.90;39.90
30999;DHT22;20549;50.042;8.968;2022-08-19T15:22:05;33.00;39.70
30999;DHT22;20549;50.042;8.968;2022-08-19T15:24:32;33.10;39.50
30999;DHT22;20549;50.042;8.968;2022-08-19T15:26:58;33.20;39.40
30999;DHT22;20549;50.042;8.968;2022-08-19T15:29:25;33.20;39.00
30999;DHT22;20549;50.042;8.968;2022-08-19T15:31:51;33.20;39.00
30999;DHT22;20549;50.042;8.968;2022-08-19T15:34:18;33.30;39.00
30999;DHT22;20549;50.042;8.968;2022-08-19T15:36:45;33.30;39.00
30999;DHT22;20549;50.042;8.968;2022-08-19T15:39:11;33.30;39.10